Time;durP1;ratioP1;P1;durP2;ratioP2;P2;SDS_P1;SDS_P2;PMS_P1;PMS_P2;Temp;Humidity;BMP_temperature;BMP_pressure;BME280_temperature;BME280_humidity;BME280_pressure;Samples;Min_cycle;Max_cycle;Signal;HPM_P1;HPM_P2
2020/12/10 00:00:43;;;;;;;60.57;38.57;;;;;;;7.42;62.76;100991.50;6112747;28;20240;-61
2020/12/10 00:04:04;;;;;;;61.67;38.87;;;;;;;7.36;62.85;100988.88;6119550;28;20618;-61
2020/12/10 00:07:24;;;;;;;63.30;39.57;;;;;;;7.40;62.65;100993.22;6110539;28;20227;-61
2020/12/10 00:10:45;;;;;;;67.43;42.87;;;;;;;7.52;62.22;100988.09;6113663;28;20232;-61
2020/12/10 00:14:06;;;;;;;75.70;44.23;;;;;;;7.57;62.11;100982.97;6120507;28;20225;-60
2020/12/10 00:17:28;;;;;;;68.37;41.57;;;;;;;7.60;61.97;100986.44;6118476;28;20231;-60
2020/12/10 00:20:49;;;;;;;65.60;43.07;;;;;;;7.43;62.40;100982.88;6116803;28;20231;-60
2020/12/10 00:24:09;;;;;;;70.00;40.50;;;;;;;7.41;62.37;100989.78;6117453;28;20228;-60
2020/12/10 00:27:29;;;;;;;67.53;41.07;;;;;;;7.37;62.48;100985.44;6107191;28;20240;-60
2020/12/10 00:30:51;;;;;;;71.40;42.83;;;;;;;7.40;62.58;100985.44;6112902;28;20243;-59
2020/12/10 00:34:11;;;;;;;64.30;40.03;;;;;;;7.54;62.04;100977.75;6122712;28;20232;-61
2020/12/10 00:37:34;;;;;;;68.70;40.30;;;;;;;7.54;61.99;100976.03;6116450;28;20227;-61
2020/12/10 00:40:54;;;;;;;71.40;41.70;;;;;;;7.65;61.70;100969.16;6112001;28;20233;-61
2020/12/10 00:44:15;;;;;;;65.93;43.73;;;;;;;7.71;61.41;100965.75;6121089;28;20629;-60
2020/12/10 00:47:36;;;;;;;76.33;41.93;;;;;;;7.78;61.41;100958.88;6118428;28;20396;-60
2020/12/10 00:50:58;;;;;;;79.17;46.73;;;;;;;7.81;61.43;100964.06;6103635;28;20232;-61
2020/12/10 00:54:19;;;;;;;90.23;45.43;;;;;;;7.73;61.43;100956.25;6085295;28;20345;-60
2020/12/10 00:57:42;;;;;;;84.10;45.63;;;;;;;7.66;61.70;100964.88;6112842;28;20759;-60
2020/12/10 01:01:03;;;;;;;80.13;47.00;;;;;;;7.68;61.88;100961.44;6114048;28;20232;-60
2020/12/10 01:04:24;;;;;;;77.13;44.60;;;;;;;7.74;61.73;100962.31;6116309;28;20228;-60
2020/12/10 01:07:48;;;;;;;81.97;47.57;;;;;;;7.74;61.50;100964.91;6115777;28;20230;-59
2020/12/10 01:11:08;;;;;;;79.37;45.17;;;;;;;7.73;61.49;100960.56;6114806;28;20232;-61
2020/12/10 01:14:28;;;;;;;78.00;44.83;;;;;;;7.74;61.30;100963.19;6110777;28;20297;-61
2020/12/10 01:17:49;;;;;;;75.97;45.03;;;;;;;7.81;61.07;100958.88;6109326;28;20450;-60
2020/12/10 01:21:10;;;;;;;72.23;44.63;;;;;;;7.87;60.95;100958.91;6109877;28;20260;-61
2020/12/10 01:24:31;;;;;;;66.03;42.83;;;;;;;7.73;61.17;100960.56;6124397;28;20288;-60
2020/12/10 01:27:53;;;;;;;63.60;43.43;;;;;;;7.67;61.43;100957.09;6110778;28;20227;-59
2020/12/10 01:31:13;;;;;;;61.90;42.07;;;;;;;7.70;61.27;100956.25;6113699;28;20235;-60
2020/12/10 01:34:34;;;;;;;65.23;39.90;;;;;;;7.72;61.08;100959.72;6097205;28;20247;-61
2020/12/10 01:37:55;;;;;;;68.70;42.03;;;;;;;7.74;60.99;100947.63;6108009;28;20224;-61
2020/12/10 01:41:15;;;;;;;70.63;44.20;;;;;;;7.74;61.29;100946.78;6099927;28;20763;-60
2020/12/10 01:44:36;;;;;;;66.73;41.27;;;;;;;7.78;60.80;100939.00;6123920;28;20219;-57
2020/12/10 01:47:56;;;;;;;79.70;47.00;;;;;;;7.75;60.84;100932.94;6116464;28;20238;-60
2020/12/10 01:51:17;;;;;;;67.00;41.37;;;;;;;7.73;60.94;100937.25;6109099;28;20240;-61
2020/12/10 01:54:38;;;;;;;62.30;39.73;;;;;;;7.78;60.80;100933.81;6127750;28;20236;-59
2020/12/10 01:57:59;;;;;;;68.83;43.07;;;;;;;7.76;60.81;100937.28;6109543;28;20236;-60
2020/12/10 02:01:20;;;;;;;65.00;40.60;;;;;;;7.73;60.64;100935.50;6106674;28;20417;-60
2020/12/10 02:04:40;;;;;;;63.63;42.90;;;;;;;7.74;60.85;100939.00;6109906;28;22188;-60
2020/12/10 02:08:01;;;;;;;69.30;43.47;;;;;;;7.71;60.97;100933.78;6099408;28;20258;-60
2020/12/10 02:11:24;;;;;;;69.30;42.67;;;;;;;7.79;60.67;100925.19;6118267;28;20311;-60
2020/12/10 02:14:44;;;;;;;69.33;44.73;;;;;;;7.79;60.72;100924.31;6102653;28;20542;-60
2020/12/10 02:18:06;;;;;;;65.37;41.83;;;;;;;7.81;60.92;100922.59;6122013;28;20643;-61
2020/12/10 02:21:26;;;;;;;71.40;42.93;;;;;;;7.84;60.45;100923.47;6116266;28;20243;-61
2020/12/10 02:24:47;;;;;;;63.00;39.90;;;;;;;7.79;60.69;100916.53;6110485;28;20236;-60
2020/12/10 02:28:11;;;;;;;62.67;40.83;;;;;;;7.76;60.22;100917.38;6119729;28;20239;-59
2020/12/10 02:31:32;;;;;;;62.83;40.10;;;;;;;7.62;61.02;100914.75;6114047;28;20602;-60
2020/12/10 02:34:52;;;;;;;62.07;40.03;;;;;;;7.79;60.70;100913.94;6116645;28;20744;-61
2020/12/10 02:38:13;;;;;;;58.20;42.50;;;;;;;7.86;60.33;100910.50;6121070;28;20238;-61
2020/12/10 02:41:34;;;;;;;59.67;40.23;;;;;;;7.84;60.29;100902.72;6113699;28;20571;-61
2020/12/10 02:44:55;;;;;;;64.73;43.13;;;;;;;7.79;60.29;100896.69;6120897;28;20247;-61
2020/12/10 02:48:15;;;;;;;57.40;38.20;;;;;;;7.80;60.37;100894.94;6123622;28;20243;-60
2020/12/10 02:51:35;;;;;;;58.33;37.93;;;;;;;7.69;60.38;100892.28;6118428;28;20236;-61
2020/12/10 02:54:56;;;;;;;59.07;37.37;;;;;;;7.65;60.61;100891.41;6118104;28;20236;-60
2020/12/10 02:58:17;;;;;;;60.23;41.13;;;;;;;7.72;60.66;100881.09;6116681;28;20236;-60
2020/12/10 03:01:38;;;;;;;60.13;39.63;;;;;;;7.81;60.32;100881.09;6115728;28;20515;-60
2020/12/10 03:04:58;;;;;;;59.13;37.23;;;;;;;7.83;60.38;100879.38;6112997;28;20240;-60
2020/12/10 03:08:18;;;;;;;59.33;41.83;;;;;;;7.49;61.33;100874.06;6124221;28;20250;-60
2020/12/10 03:11:39;;;;;;;61.20;38.27;;;;;;;7.56;61.19;100869.78;6119998;28;20658;-61
2020/12/10 03:15:00;;;;;;;59.80;42.20;;;;;;;7.63;61.19;100868.94;6120119;28;20362;-60
2020/12/10 03:18:21;;;;;;;56.57;36.53;;;;;;;7.72;61.05;100881.09;6113552;28;20233;-60
2020/12/10 03:21:41;;;;;;;56.90;37.17;;;;;;;7.73;60.36;100864.66;6117128;28;20237;-59
2020/12/10 03:25:03;;;;;;;53.57;36.50;;;;;;;7.67;60.81;100874.13;6120611;28;20279;-60
2020/12/10 03:28:23;;;;;;;55.23;37.20;;;;;;;7.74;60.88;100863.81;6118273;28;20281;-61
2020/12/10 03:31:44;;;;;;;54.63;37.23;;;;;;;7.71;60.61;100856.00;6108186;28;20231;-61
2020/12/10 03:35:05;;;;;;;55.73;35.77;;;;;;;7.75;60.34;100855.16;6120188;28;20251;-60
2020/12/10 03:38:25;;;;;;;48.77;34.73;;;;;;;7.72;60.63;100860.34;6117143;28;20220;-60
2020/12/10 03:41:47;;;;;;;45.33;33.67;;;;;;;7.63;60.62;100850.81;6098834;28;20534;-61
2020/12/10 03:45:08;;;;;;;51.20;33.87;;;;;;;7.64;60.82;100850.81;6132735;28;20236;-60
2020/12/10 03:48:29;;;;;;;42.40;32.40;;;;;;;7.42;61.49;100856.75;6126531;28;20622;-62
2020/12/10 03:51:50;;;;;;;44.83;30.23;;;;;;;7.48;60.95;100847.31;6110561;28;20360;-61
2020/12/10 03:55:10;;;;;;;42.97;32.50;;;;;;;7.41;61.22;100857.63;6131723;28;20606;-60
2020/12/10 03:58:31;;;;;;;43.60;31.40;;;;;;;7.53;60.70;100852.50;6121917;28;20234;-61
2020/12/10 04:01:51;;;;;;;44.23;31.47;;;;;;;7.61;60.48;100853.38;6110087;28;20616;-60
2020/12/10 04:05:13;;;;;;;36.23;30.33;;;;;;;7.52;60.67;100853.34;6123669;28;20240;-61
2020/12/10 04:08:33;;;;;;;35.90;27.50;;;;;;;7.60;60.62;100846.47;6120053;28;20240;-59
2020/12/10 04:11:54;;;;;;;43.33;35.30;;;;;;;7.62;60.24;100842.16;6111775;28;20232;-60
2020/12/10 04:15:14;;;;;;;41.57;32.57;;;;;;;7.32;61.08;100849.81;6135765;28;20590;-60
2020/12/10 04:18:38;;;;;;;41.83;31.83;;;;;;;7.43;60.93;100850.72;6128119;28;20228;-59
2020/12/10 04:21:59;;;;;;;39.30;29.87;;;;;;;7.20;61.59;100856.66;6101825;28;20239;-59
2020/12/10 04:25:19;;;;;;;38.77;28.63;;;;;;;7.28;61.46;100860.16;6122270;28;20784;-60
2020/12/10 04:28:39;;;;;;;38.57;28.50;;;;;;;7.33;61.32;100854.13;6129125;28;20246;-60
2020/12/10 04:31:59;;;;;;;37.33;28.30;;;;;;;7.43;61.19;100853.31;6103562;28;20236;-61
2020/12/10 04:35:20;;;;;;;39.53;28.93;;;;;;;7.52;60.81;100850.75;6128820;28;20339;-61
2020/12/10 04:38:41;;;;;;;35.53;27.67;;;;;;;7.54;60.81;100855.94;6121898;28;20232;-60
2020/12/10 04:42:07;;;;;;;38.77;26.97;;;;;;;7.50;60.71;100857.66;6107439;28;20622;-60
2020/12/10 04:45:28;;;;;;;38.43;27.83;;;;;;;7.40;61.09;100864.50;6128439;28;20232;-61
2020/12/10 04:48:49;;;;;;;35.20;26.93;;;;;;;7.42;61.21;100856.75;6121788;28;20235;-61
2020/12/10 04:52:11;;;;;;;40.70;30.07;;;;;;;7.53;60.81;100849.03;6110605;28;20297;-60
2020/12/10 04:55:32;;;;;;;36.87;27.60;;;;;;;7.50;60.68;100860.25;6119738;28;20232;-60
2020/12/10 04:58:53;;;;;;;35.10;27.53;;;;;;;7.59;60.52;100860.28;6115714;28;20236;-60
2020/12/10 05:02:13;;;;;;;37.93;27.93;;;;;;;7.68;60.28;100862.91;6107567;28;20288;-61
2020/12/10 05:05:34;;;;;;;36.60;26.63;;;;;;;7.63;60.40;100851.66;6129594;28;20252;-61
2020/12/10 05:09:06;;;;;;;39.27;27.80;;;;;;;7.54;60.20;100851.66;6123135;28;20729;-61
2020/12/10 05:12:27;;;;;;;37.47;26.47;;;;;;;7.42;61.04;100851.56;6111286;28;20235;-60
2020/12/10 05:15:48;;;;;;;37.50;27.73;;;;;;;7.28;61.37;100854.97;6121987;28;20322;-59
2020/12/10 05:19:19;;;;;;;36.37;27.30;;;;;;;7.46;60.83;100853.31;6124698;28;20244;-60
2020/12/10 05:22:46;;;;;;;36.87;26.27;;;;;;;7.35;61.06;100855.88;6114141;28;20223;-60
2020/12/10 05:26:08;;;;;;;41.70;29.13;;;;;;;7.26;61.34;100856.69;6129893;28;20251;-60
2020/12/10 05:29:35;;;;;;;40.00;27.57;;;;;;;7.35;61.03;100855.00;6111384;28;20766;-61
2020/12/10 05:32:55;;;;;;;45.33;29.97;;;;;;;7.21;61.60;100862.69;6114357;28;20231;-60
2020/12/10 05:36:15;;;;;;;43.47;29.60;;;;;;;7.30;61.14;100853.25;6119285;28;20237;-61
2020/12/10 05:39:35;;;;;;;41.60;30.70;;;;;;;7.23;61.62;100851.50;6112352;28;20600;-60
2020/12/10 05:42:56;;;;;;;42.87;29.97;;;;;;;7.32;61.27;100849.81;6121518;28;20227;-60
2020/12/10 05:46:19;;;;;;;41.60;31.00;;;;;;;7.38;61.14;100855.88;6114419;28;20538;-59
2020/12/10 05:49:40;;;;;;;49.30;32.07;;;;;;;7.35;61.09;100852.41;6122522;28;20851;-60
2020/12/10 05:53:09;;;;;;;47.67;33.13;;;;;;;7.27;61.16;100842.03;6111947;28;20232;-59
2020/12/10 05:56:33;;;;;;;52.63;33.53;;;;;;;7.31;61.29;100859.31;6121447;28;20649;-60
2020/12/10 05:59:54;;;;;;;51.33;33.57;;;;;;;7.40;61.10;100863.66;6110225;28;20232;-59
2020/12/10 06:03:15;;;;;;;46.95;35.33;;;;;;;7.33;61.19;100860.19;6111351;28;20750;-60
2020/12/10 06:06:37;;;;;;;46.60;35.60;;;;;;;7.28;61.62;100867.06;6118014;28;20232;-61
2020/12/10 06:09:59;;;;;;;53.97;35.63;;;;;;;7.37;61.25;100858.47;6118213;28;20560;-61
2020/12/10 06:13:23;;;;;;;51.10;35.10;;;;;;;7.32;61.21;100855.00;6121086;28;20239;-60
2020/12/10 06:16:43;;;;;;;50.63;35.00;;;;;;;7.45;61.03;100856.78;6106251;28;20240;-59
2020/12/10 06:20:04;;;;;;;57.67;37.73;;;;;;;7.41;60.88;100866.25;6121876;28;20231;-61
2020/12/10 06:23:37;;;;;;;57.93;37.27;;;;;;;7.20;61.42;100860.97;6123107;28;20336;-60
2020/12/10 06:26:58;;;;;;;56.10;36.93;;;;;;;7.18;61.80;100866.16;6095871;28;20251;-61
2020/12/10 06:30:20;;;;;;;56.90;34.13;;;;;;;7.07;61.93;100855.72;6128448;28;20255;-60
2020/12/10 06:33:42;;;;;;;53.50;34.37;;;;;;;7.06;62.16;100873.84;6107593;28;20239;-60
2020/12/10 06:37:23;;;;;;;60.50;38.43;;;;;;;7.30;61.25;100871.38;6103035;28;20750;-59
2020/12/10 06:40:44;;;;;;;61.10;38.77;;;;;;;7.25;61.58;100867.91;6120032;28;20239;-60
2020/12/10 06:44:04;;;;;;;56.13;35.07;;;;;;;7.01;61.95;100865.19;6119921;28;20251;-59
2020/12/10 06:47:40;;;;;;;59.10;36.40;;;;;;;7.02;62.02;100860.00;6096905;28;20243;-60
2020/12/10 06:51:10;;;;;;;45.10;30.97;;;;;;;7.26;61.66;100853.22;6114042;28;20235;-60
2020/12/10 06:54:31;;;;;;;51.03;31.63;;;;;;;7.37;61.02;100858.47;6121288;28;20605;-63
2020/12/10 06:58:02;;;;;;;47.93;29.70;;;;;;;7.29;61.22;100867.06;6114260;28;20263;-60
2020/12/10 07:01:32;;;;;;;46.28;32.78;;;;;;;7.12;61.77;100860.94;6115814;28;22426;-61
2020/12/10 07:04:53;;;;;;;46.43;33.50;;;;;;;7.25;61.41;100865.31;6107190;28;20777;-61
2020/12/10 07:08:16;;;;;;;51.13;33.30;;;;;;;7.37;61.01;100868.84;6121528;28;20322;-62
2020/12/10 07:11:39;;;;;;;47.83;32.37;;;;;;;7.46;61.03;100868.88;6123275;28;20319;-59
2020/12/10 07:15:11;;;;;;;45.23;29.27;;;;;;;7.40;61.22;100874.03;6116529;28;20723;-61
2020/12/10 07:18:32;;;;;;;47.40;30.17;;;;;;;7.15;61.76;100870.44;6124307;28;20242;-61
2020/12/10 07:21:52;;;;;;;40.33;29.57;;;;;;;7.23;61.26;100874.81;6110650;28;20227;-59
2020/12/10 07:25:13;;;;;;;41.53;28.07;;;;;;;7.10;61.63;100885.97;6138200;28;20662;-59
2020/12/10 07:28:34;;;;;;;43.80;28.93;;;;;;;7.17;61.25;100885.13;6117844;28;20342;-58
2020/12/10 07:31:55;;;;;;;41.53;29.97;;;;;;;7.28;60.91;100895.56;6113313;28;20239;-61
2020/12/10 07:35:27;;;;;;;37.27;26.70;;;;;;;7.15;61.16;100897.19;6130474;28;20238;-62
2020/12/10 07:38:47;;;;;;;47.90;31.17;;;;;;;7.20;61.06;100892.06;6123694;28;20243;-60
2020/12/10 07:42:08;;;;;;;45.07;30.47;;;;;;;7.29;60.88;100885.22;6103017;28;20247;-55
2020/12/10 07:45:29;;;;;;;46.23;32.73;;;;;;;7.05;61.20;100887.63;6133068;28;20322;-58
2020/12/10 07:48:50;;;;;;;46.17;32.07;;;;;;;7.15;60.91;100899.78;6128535;28;20227;-55
2020/12/10 07:52:12;;;;;;;53.63;35.40;;;;;;;7.19;60.63;100900.66;6109179;28;20235;-59
2020/12/10 07:55:40;;;;;;;54.27;36.20;;;;;;;7.11;60.90;100908.38;6127737;28;20232;-58
2020/12/10 07:59:02;;;;;;;50.03;34.47;;;;;;;7.05;61.12;100898.00;6121375;28;20229;-63
2020/12/10 08:02:39;;;;;;;57.30;37.33;;;;;;;6.95;61.37;100893.63;6110892;28;20231;-60
2020/12/10 08:06:04;;;;;;;48.50;33.27;;;;;;;7.02;61.20;100898.84;6118365;28;20334;-56
2020/12/10 08:09:24;;;;;;;55.87;37.00;;;;;;;7.10;61.07;100893.72;6111532;28;20224;-59
2020/12/10 08:12:45;;;;;;;55.67;37.27;;;;;;;6.98;60.93;100891.94;6110683;28;20244;-58
2020/12/10 08:16:07;;;;;;;55.50;38.00;;;;;;;6.92;61.48;100880.63;6123544;28;20235;-57
2020/12/10 08:19:30;;;;;;;57.17;36.27;;;;;;;6.96;61.52;100879.81;6124228;28;21901;-58
2020/12/10 08:22:59;;;;;;;67.13;38.67;;;;;;;7.39;63.86;100872.31;6113286;28;20243;-60
2020/12/10 08:26:20;;;;;;;63.77;37.50;;;;;;;7.20;61.56;100881.69;6117720;28;20505;-60
2020/12/10 08:29:58;;;;;;;64.07;38.73;;;;;;;6.88;61.90;100880.63;6113328;28;20232;-64
2020/12/10 08:33:19;;;;;;;65.70;40.50;;;;;;;6.90;61.87;100889.28;6109546;28;20240;-65
2020/12/10 08:36:40;;;;;;;70.73;42.27;;;;;;;6.57;62.62;100881.25;6113464;28;20654;-63
2020/12/10 08:40:01;;;;;;;69.33;44.03;;;;;;;6.39;62.73;100887.97;6112837;28;20361;-65
2020/12/10 08:43:21;;;;;;;68.33;39.33;;;;;;;6.65;62.36;100876.97;6105331;28;20274;-64
2020/12/10 08:46:42;;;;;;;66.07;43.13;;;;;;;6.39;62.77;100877.63;6112584;28;20236;-65
2020/12/10 08:50:23;;;;;;;65.17;41.80;;;;;;;6.37;62.56;100874.16;6113555;28;20236;-66
2020/12/10 08:53:49;;;;;;;59.60;39.43;;;;;;;6.43;62.79;100874.22;6114923;28;20570;-60
2020/12/10 08:57:11;;;;;;;61.33;40.00;;;;;;;6.56;62.33;100877.78;6109528;28;20942;-58
2020/12/10 09:00:35;;;;;;;59.37;39.87;;;;;;;6.68;62.05;100882.19;6113410;28;20638;-56
2020/12/10 09:03:56;;;;;;;65.47;38.57;;;;;;;6.82;61.55;100880.56;6106428;28;20266;-60
2020/12/10 09:07:16;;;;;;;63.23;41.97;;;;;;;6.93;61.12;100878.06;6105739;28;20231;-60
2020/12/10 09:10:37;;;;;;;55.47;37.80;;;;;;;6.99;61.10;100875.50;6119019;28;20231;-60
2020/12/10 09:13:59;;;;;;;58.47;40.23;;;;;;;6.99;60.61;100877.25;6115002;28;20248;-60
2020/12/10 09:17:20;;;;;;;51.67;35.70;;;;;;;6.96;60.75;100872.03;6109120;28;20542;-60
2020/12/10 09:20:41;;;;;;;54.63;36.33;;;;;;;6.91;60.95;100874.59;6118969;28;20232;-57
2020/12/10 09:24:01;;;;;;;54.10;35.83;;;;;;;6.96;60.84;100866.84;6111701;28;20231;-64
2020/12/10 09:27:23;;;;;;;50.93;35.90;;;;;;;6.94;60.98;100878.94;6113146;28;20236;-56
2020/12/10 09:30:43;;;;;;;49.63;33.70;;;;;;;6.86;61.02;100873.69;6116936;28;20328;-54
2020/12/10 09:34:03;;;;;;;43.27;32.07;;;;;;;6.75;61.21;100871.03;6115108;28;20259;-56
2020/12/10 09:37:24;;;;;;;49.27;34.80;;;;;;;6.64;61.73;100875.25;6118556;28;20232;-62
2020/12/10 09:40:45;;;;;;;52.37;36.60;;;;;;;6.65;61.36;100858.88;6117805;28;20236;-55
2020/12/10 09:44:06;;;;;;;49.40;36.83;;;;;;;6.87;61.23;100853.00;6115857;28;20240;-58
2020/12/10 09:47:27;;;;;;;47.13;32.30;;;;;;;6.97;61.00;100847.88;6107243;28;20242;-55
2020/12/10 09:50:47;;;;;;;49.67;34.37;;;;;;;6.86;61.16;100845.22;6112675;28;20683;-56
2020/12/10 09:54:13;;;;;;;52.67;33.80;;;;;;;6.99;60.72;100846.19;6118884;28;20637;-61
2020/12/10 09:57:34;;;;;;;55.70;37.40;;;;;;;7.03;60.52;100845.34;6111012;28;20338;-62
2020/12/10 10:00:56;;;;;;;42.40;30.87;;;;;;;6.98;66.27;100853.09;6121407;28;20228;-56
2020/12/10 10:04:16;;;;;;;40.37;27.53;;;;;;;7.76;70.38;100849.13;6118366;28;20236;-56
2020/12/10 10:07:39;;;;;;;50.77;33.13;;;;;;;7.82;64.59;100842.22;6107145;28;20219;-58
2020/12/10 10:10:59;;;;;;;50.23;35.03;;;;;;;7.58;60.24;100844.72;6117269;28;20236;-52
2020/12/10 10:14:20;;;;;;;57.07;34.70;;;;;;;7.39;60.15;100849.84;6120045;28;20231;-54
2020/12/10 10:17:41;;;;;;;59.03;36.87;;;;;;;7.25;60.61;100839.41;6108755;28;20722;-49
2020/12/10 10:21:02;;;;;;;54.50;36.13;;;;;;;7.30;60.21;100840.28;6115010;28;20977;-56
2020/12/10 10:24:22;;;;;;;51.83;35.43;;;;;;;7.34;60.15;100835.13;6115818;28;20247;-58
2020/12/10 10:27:45;;;;;;;56.13;39.23;;;;;;;7.03;60.21;100842.75;6113668;28;20223;-56
2020/12/10 10:31:07;;;;;;;64.50;37.77;;;;;;;7.05;60.61;100831.53;6120606;28;21983;-55
2020/12/10 10:34:29;;;;;;;60.70;41.57;;;;;;;7.01;60.30;100828.94;6125625;28;20240;-56
2020/12/10 10:37:49;;;;;;;55.33;38.37;;;;;;;6.88;60.44;100823.69;6127798;28;20252;-57
2020/12/10 10:41:10;;;;;;;61.90;42.30;;;;;;;6.82;60.36;100823.63;6117785;28;20327;-56
2020/12/10 10:44:30;;;;;;;58.93;37.30;;;;;;;6.89;60.74;100815.03;6114799;28;20244;-57
2020/12/10 10:47:51;;;;;;;64.67;41.87;;;;;;;6.85;60.49;100813.28;6113137;28;20227;-56
2020/12/10 10:51:13;;;;;;;63.57;39.40;;;;;;;6.94;60.25;100821.97;6123137;28;20255;-52
2020/12/10 10:54:33;;;;;;;61.10;38.97;;;;;;;7.19;59.86;100813.50;6119112;28;20637;-55
2020/12/10 10:57:54;;;;;;;63.80;40.30;;;;;;;7.29;59.49;100801.44;6120522;28;20227;-60
2020/12/10 11:01:15;;;;;;;75.37;44.43;;;;;;;7.08;60.00;100804.81;6116933;28;20239;-57
2020/12/10 11:04:35;;;;;;;67.37;44.37;;;;;;;7.09;60.07;100798.75;6123194;28;20236;-59
2020/12/10 11:07:58;;;;;;;76.30;45.30;;;;;;;7.05;60.33;100789.22;6118986;28;20219;-59
2020/12/10 11:11:19;;;;;;;67.63;42.33;;;;;;;7.20;60.06;100791.91;6100961;28;20243;-60
2020/12/10 11:14:39;;;;;;;74.47;46.93;;;;;;;7.06;60.11;100797.03;6118767;28;20227;-61
2020/12/10 11:18:00;;;;;;;71.10;43.77;;;;;;;7.24;59.69;100798.81;6118599;28;20550;-59
2020/12/10 11:21:26;;;;;;;71.07;42.07;;;;;;;7.17;59.88;100791.88;6121436;28;20239;-60
2020/12/10 11:24:47;;;;;;;71.00;44.37;;;;;;;7.02;60.08;100799.59;6112563;28;20239;-60
2020/12/10 11:28:08;;;;;;;66.83;39.33;;;;;;;7.00;60.08;100790.91;6126794;28;20227;-60
2020/12/10 11:31:29;;;;;;;69.47;42.27;;;;;;;7.00;60.14;100801.28;6112408;28;20243;-61
2020/12/10 11:34:49;;;;;;;68.43;42.30;;;;;;;7.11;59.73;100786.66;6113481;28;20235;-60
2020/12/10 11:38:09;;;;;;;70.87;42.23;;;;;;;7.27;59.58;100791.06;6115514;28;21093;-60
2020/12/10 11:41:31;;;;;;;61.40;40.67;;;;;;;7.36;59.46;100779.00;6119102;28;20239;-61
2020/12/10 11:44:52;;;;;;;70.23;47.23;;;;;;;7.09;59.75;100765.09;6104086;28;20232;-60
2020/12/10 11:48:13;;;;;;;71.77;45.03;;;;;;;7.30;59.71;100767.75;6113348;28;20240;-59
2020/12/10 11:51:34;;;;;;;71.50;43.77;;;;;;;7.36;59.42;100773.81;6117097;28;20618;-61
2020/12/10 11:54:55;;;;;;;72.20;44.00;;;;;;;7.28;59.58;100768.63;6121180;28;20232;-54
2020/12/10 11:58:16;;;;;;;76.83;45.27;;;;;;;7.23;59.69;100768.63;6113483;28;20244;-61
2020/12/10 12:01:37;;;;;;;72.87;44.67;;;;;;;7.26;59.68;100768.59;6114854;28;20233;-60
2020/12/10 12:04:58;;;;;;;66.63;42.90;;;;;;;7.37;59.31;100767.81;6119206;28;20232;-57
2020/12/10 12:08:24;;;;;;;69.30;42.03;;;;;;;7.16;59.93;100766.84;6116604;28;20609;-61
2020/12/10 12:11:45;;;;;;;80.00;50.47;;;;;;;7.22;59.61;100764.28;6117676;28;20236;-61
2020/12/10 12:15:07;;;;;;;80.93;46.77;;;;;;;7.33;59.65;100759.16;6098169;28;20489;-61
2020/12/10 12:18:28;;;;;;;69.07;42.50;;;;;;;7.37;59.29;100760.03;6117508;28;20227;-56
2020/12/10 12:21:48;;;;;;;63.30;39.77;;;;;;;7.26;59.50;100753.06;6106595;28;20228;-55
2020/12/10 12:25:09;;;;;;;67.17;41.87;;;;;;;7.36;59.07;100750.50;6127681;28;20231;-59
2020/12/10 12:28:29;;;;;;;61.23;38.57;;;;;;;7.47;58.85;100756.59;6121115;28;20243;-54
2020/12/10 12:31:51;;;;;;;66.00;42.07;;;;;;;7.44;58.74;100753.97;6107128;28;20239;-55
2020/12/10 12:35:11;;;;;;;62.97;41.57;;;;;;;7.28;58.87;100748.75;6125817;28;20537;-60
2020/12/10 12:38:32;;;;;;;56.50;37.07;;;;;;;7.28;58.66;100748.75;6115478;28;20218;-61
2020/12/10 12:41:53;;;;;;;56.83;37.80;;;;;;;7.33;58.81;100746.19;6112384;28;20301;-60
2020/12/10 12:45:13;;;;;;;59.77;38.40;;;;;;;6.97;59.13;100745.19;6131058;28;20240;-61
2020/12/10 12:48:35;;;;;;;54.27;36.67;;;;;;;6.60;59.82;100749.31;6116751;28;20239;-59
2020/12/10 12:51:56;;;;;;;52.17;34.50;;;;;;;6.96;59.63;100737.41;6106400;28;20323;-55
2020/12/10 12:55:17;;;;;;;55.37;35.90;;;;;;;7.15;59.10;100739.19;6116272;28;20220;-58
2020/12/10 12:58:37;;;;;;;53.93;35.97;;;;;;;7.20;58.82;100740.09;6126883;28;20234;-58
2020/12/10 13:01:58;;;;;;;53.73;34.50;;;;;;;7.23;58.69;100745.31;6110948;28;20228;-60
2020/12/10 13:05:19;;;;;;;53.80;34.93;;;;;;;7.21;58.53;100739.25;6122907;28;20574;-57
2020/12/10 13:08:40;;;;;;;56.17;36.87;;;;;;;7.21;58.86;100740.94;6122154;28;20231;-60
2020/12/10 13:12:01;;;;;;;55.27;39.00;;;;;;;7.13;58.86;100734.88;6107400;28;20642;-61
2020/12/10 13:15:21;;;;;;;58.13;37.70;;;;;;;7.16;58.99;100735.78;6127334;28;20224;-64
2020/12/10 13:18:42;;;;;;;52.93;34.50;;;;;;;7.27;58.94;100733.22;6114450;28;20227;-55
2020/12/10 13:22:03;;;;;;;55.83;36.30;;;;;;;7.32;59.08;100735.81;6104911;28;20233;-54
2020/12/10 13:25:26;;;;;;;54.43;36.77;;;;;;;7.12;59.09;100734.03;6123020;28;20669;-55
2020/12/10 13:28:46;;;;;;;57.13;37.63;;;;;;;7.10;59.42;100731.44;6117103;28;20258;-61
2020/12/10 13:32:07;;;;;;;56.17;35.20;;;;;;;7.27;58.94;100728.91;6106251;28;20247;-54
2020/12/10 13:35:27;;;;;;;51.10;34.63;;;;;;;7.41;58.58;100725.50;6121483;28;21811;-57
2020/12/10 13:38:49;;;;;;;52.20;35.37;;;;;;;7.38;58.80;100720.28;6109926;28;20219;-59
2020/12/10 13:42:09;;;;;;;64.43;40.00;;;;;;;7.41;58.50;100720.31;6100120;28;20239;-54
2020/12/10 13:45:30;;;;;;;50.00;34.03;;;;;;;7.37;58.43;100718.56;6122582;28;20239;-59
2020/12/10 13:48:51;;;;;;;58.43;36.43;;;;;;;7.37;58.56;100719.44;6129295;28;20232;-58
2020/12/10 13:52:11;;;;;;;56.10;37.33;;;;;;;7.41;58.61;100720.31;6104593;28;20243;-59
2020/12/10 13:55:33;;;;;;;56.83;37.87;;;;;;;7.33;58.97;100719.41;6114666;28;20614;-51
2020/12/10 13:58:53;;;;;;;65.90;43.67;;;;;;;7.23;59.24;100719.41;6116834;28;20609;-61
2020/12/10 14:02:16;;;;;;;59.30;38.47;;;;;;;7.33;59.10;100719.41;6106660;28;20652;-58
2020/12/10 14:05:37;;;;;;;65.23;40.70;;;;;;;7.25;59.24;100719.38;6129320;28;20243;-56
2020/12/10 14:08:57;;;;;;;65.97;38.90;;;;;;;7.06;59.85;100724.50;6126662;28;20325;-56
2020/12/10 14:12:19;;;;;;;66.73;38.73;;;;;;;7.03;60.11;100728.81;6115111;28;20322;-58
2020/12/10 14:15:39;;;;;;;69.07;43.00;;;;;;;7.09;59.91;100734.00;6128803;28;22328;-58
2020/12/10 14:19:00;;;;;;;65.73;39.83;;;;;;;7.15;59.88;100726.25;6113283;28;20227;-60
2020/12/10 14:22:20;;;;;;;68.57;43.37;;;;;;;6.86;60.60;100734.78;6105665;28;20321;-55
2020/12/10 14:25:41;;;;;;;66.43;38.83;;;;;;;6.77;60.65;100742.50;6120568;28;20232;-58
2020/12/10 14:29:02;;;;;;;62.07;41.93;;;;;;;6.94;60.07;100739.13;6126403;28;20235;-54
2020/12/10 14:32:23;;;;;;;68.47;39.30;;;;;;;6.90;60.30;100731.34;6117674;28;20646;-59
2020/12/10 14:35:51;;;;;;;56.47;33.93;;;;;;;6.86;60.24;100724.44;6124396;28;20237;-57
2020/12/10 14:39:11;;;;;;;57.73;38.40;;;;;;;7.01;59.90;100725.34;6128455;28;20266;-60
2020/12/10 14:42:32;;;;;;;58.00;37.07;;;;;;;7.01;59.68;100726.22;6118965;28;20266;-58
2020/12/10 14:45:53;;;;;;;60.03;37.40;;;;;;;6.59;60.53;100727.75;6114518;28;20617;-59
2020/12/10 14:49:13;;;;;;;56.27;36.53;;;;;;;6.87;60.02;100713.22;6119391;28;20240;-61
2020/12/10 14:52:37;;;;;;;57.70;35.37;;;;;;;6.45;60.98;100722.47;6126182;28;20849;-62
2020/12/10 14:55:57;;;;;;;60.77;39.20;;;;;;;6.60;60.84;100731.19;6099605;28;20235;-58
2020/12/10 14:59:18;;;;;;;65.73;39.93;;;;;;;6.74;60.52;100723.50;6115974;28;20232;-58
2020/12/10 15:02:39;;;;;;;69.78;44.35;;;;;;;6.54;61.15;100725.97;6110403;28;21425;-61
2020/12/10 15:06:00;;;;;;;66.93;40.50;;;;;;;6.61;60.95;100725.13;6126712;28;20339;-61
2020/12/10 15:09:20;;;;;;;65.37;41.00;;;;;;;6.85;60.33;100720.09;6127137;28;20260;-61
2020/12/10 15:12:41;;;;;;;72.67;44.77;;;;;;;6.53;61.03;100729.41;6105750;28;20630;-63
2020/12/10 15:16:01;;;;;;;68.90;43.73;;;;;;;6.54;61.13;100718.22;6132542;28;20235;-63
2020/12/10 15:19:24;;;;;;;74.40;42.77;;;;;;;6.41;61.08;100723.28;6127076;28;20243;-66
2020/12/10 15:22:45;;;;;;;80.50;43.97;;;;;;;6.11;62.12;100734.31;6114587;28;20257;-65
2020/12/10 15:26:05;;;;;;;70.83;40.70;;;;;;;5.98;62.46;100729.88;6128564;28;20236;-64